Huvudsida
METAR-TAF:

METAR-TAF

Flygplatser :

Saint-Étienne, Frankrike

latitud: 45-32N, longitud: 004-18E, höjd: 404 m

Aktuellt väderrapport

Denna rapport gjordes för 29 minuter sedan, klockan 23:00 UTC
Vind 2 kt från sydost
Temperatur 16°C
Fuktighet 94%
Tryck 1014 hPa
Sikt 10 km eller mer
Inga moln under 1 500 m eller inga cumulonimbus

METAR: LFMH 242300Z AUTO 13002KT CAVOK 16/15 Q1014

Tid: 01:29 (23:29 UTC)


TAF: saknas

Aktuella väderrapporter och prognoser från 4000 flygplatser (METAR- och TAF-rapporter).

De tillgängliga stationerna syns som gula och röda prickar på kartan.

För musen över prickarna för att se namnen på stationerna.

Klicka sedan för att få väderrapporter och prognoser.

För att ändra kartan: Klicka på de gröna knapparna med ett svart kors på för att zooma in; den gröna knappen med ett streck på för att zooma ut; eller på de gröna pilarna för angränsande kartor.


METAR-TAF: